Time;durP1;ratioP1;P1;durP2;ratioP2;P2;SDS_P1;SDS_P2;PMS_P1;PMS_P2;Temp;Humidity;BMP_temperature;BMP_pressure;BME280_temperature;BME280_humidity;BME280_pressure;Samples;Min_cycle;Max_cycle;Signal;HPM_P1;HPM_P2
2022/10/12 00:02:13;;;;;;;17.73;15.90;;;;;;;;;;5194818;28;20534;-83
2022/10/12 00:04:43;;;;;;;17.60;16.30;;;;;;;;;;5194160;28;20014;-83
2022/10/12 00:07:13;;;;;;;19.17;17.40;;;;;;;;;;5194797;28;20069;-83
2022/10/12 00:09:44;;;;;;;17.87;16.27;;;;;;;;;;5193753;28;20269;-81
2022/10/12 00:12:14;;;;;;;18.98;17.13;;;;;;;;;;5194394;28;20761;-84
2022/10/12 00:14:44;;;;;;;19.90;18.23;;;;;;;;;;5191851;28;20108;-82
2022/10/12 00:17:14;;;;;;;18.40;17.02;;;;;;;;;;5194286;28;20053;-83
2022/10/12 00:19:45;;;;;;;17.77;15.67;;;;;;;;;;5192718;28;20033;-84
2022/10/12 00:22:15;;;;;;;18.45;16.58;;;;;;;;;;5194287;28;20264;-83
2022/10/12 00:24:45;;;;;;;20.83;18.90;;;;;;;;;;5191588;28;20061;-83
2022/10/12 00:27:15;;;;;;;19.23;17.17;;;;;;;;;;5193641;28;20491;-81
2022/10/12 00:29:46;;;;;;;18.65;16.75;;;;;;;;;;5193455;28;20082;-81
2022/10/12 00:32:17;;;;;;;16.63;15.35;;;;;;;;;;5193691;28;20029;-81
2022/10/12 00:34:47;;;;;;;16.65;14.95;;;;;;;;;;5191465;28;20506;-81
2022/10/12 00:37:18;;;;;;;18.73;16.95;;;;;;;;;;5193417;28;20153;-81
2022/10/12 00:39:48;;;;;;;16.73;15.27;;;;;;;;;;5191891;28;20022;-80
2022/10/12 00:42:19;;;;;;;15.13;13.50;;;;;;;;;;5194015;28;20030;-82
2022/10/12 00:44:50;;;;;;;17.23;15.65;;;;;;;;;;5192738;28;20086;-80
2022/10/12 00:47:23;;;;;;;16.40;15.02;;;;;;;;;;5193492;28;20515;-81
2022/10/12 00:50:04;;;;;;;17.08;15.80;;;;;;;;;;5193568;28;20022;-81
2022/10/12 00:52:48;;;;;;;17.42;15.65;;;;;;;;;;5193569;28;20372;-82
2022/10/12 00:55:20;;;;;;;17.20;15.50;;;;;;;;;;5191949;28;20022;-82
2022/10/12 00:57:51;;;;;;;19.15;17.55;;;;;;;;;;5193392;28;20021;-82
2022/10/12 01:00:22;;;;;;;15.93;14.60;;;;;;;;;;5192291;28;20014;-81
2022/10/12 01:02:53;;;;;;;17.45;15.95;;;;;;;;;;5192136;28;20018;-81
2022/10/12 01:05:24;;;;;;;21.85;17.48;;;;;;;;;;5191731;28;20088;-82
2022/10/12 01:07:54;;;;;;;21.15;19.17;;;;;;;;;;5192188;28;20026;-81
2022/10/12 01:10:24;;;;;;;20.50;18.48;;;;;;;;;;5193252;28;20024;-82
2022/10/12 01:12:54;;;;;;;20.98;18.88;;;;;;;;;;5191687;28;20033;-80
2022/10/12 01:15:28;;;;;;;21.17;19.50;;;;;;;;;;5192278;28;20076;-81
2022/10/12 01:18:01;;;;;;;18.83;17.30;;;;;;;;;;5191140;28;20018;-81
2022/10/12 01:20:50;;;;;;;17.05;15.85;;;;;;;;;;5193048;28;20018;-81
2022/10/12 01:23:32;;;;;;;18.42;14.48;;;;;;;;;;5191949;28;20022;-81
2022/10/12 01:26:05;;;;;;;19.70;17.75;;;;;;;;;;5192027;28;20037;-82
2022/10/12 01:28:38;;;;;;;16.88;15.02;;;;;;;;;;5193061;28;20090;-81
2022/10/12 01:31:17;;;;;;;16.15;14.88;;;;;;;;;;5192429;28;20083;-81
2022/10/12 01:33:48;;;;;;;17.73;16.15;;;;;;;;;;5190629;28;20402;-81
2022/10/12 01:36:31;;;;;;;16.92;15.63;;;;;;;;;;5193110;28;20042;-82
2022/10/12 01:39:06;;;;;;;16.63;14.55;;;;;;;;;;5192557;28;20053;-81
2022/10/12 01:41:45;;;;;;;18.52;15.77;;;;;;;;;;5192792;28;20018;-82
2022/10/12 01:44:20;;;;;;;19.20;17.15;;;;;;;;;;5190426;28;20080;-82
2022/10/12 01:46:51;;;;;;;18.48;16.50;;;;;;;;;;5192382;28;20021;-81
2022/10/12 01:49:27;;;;;;;17.30;15.73;;;;;;;;;;5191196;28;20104;-81
2022/10/12 01:52:01;;;;;;;17.27;15.82;;;;;;;;;;5192488;28;20057;-81
2022/10/12 01:54:46;;;;;;;20.20;16.30;;;;;;;;;;5190426;28;20029;-82
2022/10/12 01:57:24;;;;;;;14.40;13.30;;;;;;;;;;5191745;28;20029;-81
2022/10/12 02:00:05;;;;;;;14.63;13.63;;;;;;;;;;5192349;28;20034;-81
2022/10/12 02:02:57;;;;;;;17.83;16.20;;;;;;;;;;5190838;28;20018;-82
2022/10/12 02:05:27;;;;;;;24.90;14.73;;;;;;;;;;5191265;28;20033;-80
2022/10/12 02:08:04;;;;;;;18.08;16.20;;;;;;;;;;5192302;28;20026;-82
2022/10/12 02:10:53;;;;;;;27.73;16.08;;;;;;;;;;5192018;28;20029;-80
2022/10/12 02:13:26;;;;;;;16.70;14.15;;;;;;;;;;5190722;28;20033;-81
2022/10/12 02:15:57;;;;;;;16.02;14.60;;;;;;;;;;5190569;28;20541;-82
2022/10/12 02:18:28;;;;;;;18.92;15.07;;;;;;;;;;5191788;28;20388;-80
2022/10/12 02:20:59;;;;;;;15.85;14.40;;;;;;;;;;5191514;28;20022;-81
2022/10/12 02:23:30;;;;;;;17.50;16.00;;;;;;;;;;5190888;28;20022;-81
2022/10/12 02:26:01;;;;;;;22.55;15.27;;;;;;;;;;5190797;28;20026;-82
2022/10/12 02:28:33;;;;;;;14.43;13.45;;;;;;;;;;5191932;28;20136;-81
2022/10/12 02:31:09;;;;;;;16.25;14.95;;;;;;;;;;5190733;28;20049;-81
2022/10/12 02:33:42;;;;;;;18.65;16.95;;;;;;;;;;5190535;28;20029;-81
2022/10/12 02:36:22;;;;;;;20.83;16.77;;;;;;;;;;5191327;28;20048;-81
2022/10/12 02:38:56;;;;;;;17.55;14.10;;;;;;;;;;5190685;28;20046;-82
2022/10/12 02:41:28;;;;;;;14.73;13.60;;;;;;;;;;5191050;28;20022;-82
2022/10/12 02:44:00;;;;;;;17.45;15.63;;;;;;;;;;5190272;28;20018;-81
2022/10/12 02:46:32;;;;;;;15.77;14.18;;;;;;;;;;5221092;23;20036;-82
2022/10/12 02:49:03;;;;;;;18.38;16.95;;;;;;;;;;5267910;28;20020;-81
2022/10/12 02:51:34;;;;;;;18.55;14.98;;;;;;;;;;5267648;28;20019;-79
2022/10/12 02:54:04;;;;;;;19.02;17.25;;;;;;;;;;5260391;28;20080;-81
2022/10/12 02:56:40;;;;;;;16.33;15.00;;;;;;;;;;5257205;28;20025;-83
2022/10/12 02:59:11;;;;;;;19.65;15.07;;;;;;;;;;5256903;28;20040;-79
2022/10/12 03:01:42;;;;;;;14.85;13.63;;;;;;;;;;5260636;28;20021;-80
2022/10/12 03:04:12;;;;;;;16.17;15.00;;;;;;;;;;5257142;28;20036;-80
2022/10/12 03:06:42;;;;;;;16.55;15.15;;;;;;;;;;5254149;28;20458;-81
2022/10/12 03:09:13;;;;;;;19.77;14.30;;;;;;;;;;5253811;28;20012;-81
2022/10/12 03:11:43;;;;;;;15.75;14.23;;;;;;;;;;5255174;28;20090;-79
2022/10/12 03:14:14;;;;;;;14.85;13.57;;;;;;;;;;5253276;28;20028;-83
2022/10/12 03:16:45;;;;;;;20.20;15.38;;;;;;;;;;5252584;28;20086;-82
2022/10/12 03:19:15;;;;;;;16.17;14.90;;;;;;;;;;5254414;28;20495;-82
2022/10/12 03:21:46;;;;;;;19.80;13.73;;;;;;;;;;5254643;28;20066;-81
2022/10/12 03:24:16;;;;;;;26.95;18.55;;;;;;;;;;5252409;28;20016;-83
2022/10/12 03:26:46;;;;;;;16.95;15.35;;;;;;;;;;5254333;28;20585;-84
2022/10/12 03:29:16;;;;;;;16.70;15.20;;;;;;;;;;5254326;28;20029;-81
2022/10/12 03:31:46;;;;;;;16.85;14.65;;;;;;;;;;5254161;28;20470;-82
2022/10/12 03:34:17;;;;;;;16.20;14.87;;;;;;;;;;5253332;28;20025;-82
2022/10/12 03:36:47;;;;;;;15.70;14.50;;;;;;;;;;5252792;28;20388;-82
2022/10/12 03:39:17;;;;;;;16.48;14.57;;;;;;;;;;5252757;28;20369;-83
2022/10/12 03:41:47;;;;;;;17.95;15.90;;;;;;;;;;5253989;28;20013;-84
2022/10/12 03:44:18;;;;;;;14.77;13.50;;;;;;;;;;5257115;28;20115;-82
2022/10/12 03:46:48;;;;;;;17.57;16.00;;;;;;;;;;5258453;28;20751;-82
2022/10/12 03:49:19;;;;;;;22.80;20.35;;;;;;;;;;5258196;28;20270;-82
2022/10/12 03:51:49;;;;;;;16.73;15.27;;;;;;;;;;5256448;28;20054;-82
2022/10/12 03:54:19;;;;;;;19.77;18.17;;;;;;;;;;5258289;28;20070;-82
2022/10/12 03:56:49;;;;;;;33.70;23.43;;;;;;;;;;5258090;28;20073;-85
2022/10/12 03:59:19;;;;;;;24.05;21.92;;;;;;;;;;5258730;28;20675;-82
2022/10/12 04:01:50;;;;;;;19.10;17.70;;;;;;;;;;5259588;28;20027;-82
2022/10/12 04:04:20;;;;;;;19.63;17.75;;;;;;;;;;5258438;28;20251;-82
2022/10/12 04:06:50;;;;;;;17.55;16.05;;;;;;;;;;5259254;28;20447;-82
2022/10/12 04:09:21;;;;;;;17.48;15.77;;;;;;;;;;5258858;28;20016;-81
2022/10/12 04:11:51;;;;;;;18.42;16.30;;;;;;;;;;5259059;28;20028;-82
2022/10/12 04:14:21;;;;;;;16.63;15.00;;;;;;;;;;5256296;28;20024;-80
2022/10/12 04:16:53;;;;;;;21.30;19.30;;;;;;;;;;5259065;28;20376;-82
2022/10/12 04:19:23;;;;;;;24.30;22.15;;;;;;;;;;5257285;28;20109;-81
2022/10/12 04:21:53;;;;;;;22.77;21.00;;;;;;;;;;5255975;28;20020;-80
2022/10/12 04:24:23;;;;;;;23.92;21.85;;;;;;;;;;5253873;28;20021;-81
2022/10/12 04:26:54;;;;;;;19.95;17.92;;;;;;;;;;5255038;28;20024;-81
2022/10/12 04:29:24;;;;;;;18.58;17.10;;;;;;;;;;5256034;28;20085;-80
2022/10/12 04:31:54;;;;;;;16.48;15.10;;;;;;;;;;5255555;28;20028;-80
2022/10/12 04:34:24;;;;;;;17.73;16.37;;;;;;;;;;5254896;28;20044;-80
2022/10/12 04:36:54;;;;;;;20.48;16.35;;;;;;;;;;5255128;28;20261;-79
2022/10/12 04:39:25;;;;;;;16.42;14.90;;;;;;;;;;5255863;28;20093;-79
2022/10/12 04:41:55;;;;;;;17.95;16.55;;;;;;;;;;5255498;28;20571;-81
2022/10/12 04:44:25;;;;;;;17.92;16.02;;;;;;;;;;5254571;28;20016;-81
2022/10/12 04:46:56;;;;;;;17.50;16.00;;;;;;;;;;5253321;28;20055;-82
2022/10/12 04:49:26;;;;;;;24.17;17.50;;;;;;;;;;5254449;28;20482;-79
2022/10/12 04:51:56;;;;;;;18.83;17.30;;;;;;;;;;5254469;28;20050;-80
2022/10/12 04:54:26;;;;;;;19.10;17.10;;;;;;;;;;5252594;28;20447;-79
2022/10/12 04:56:57;;;;;;;23.50;17.85;;;;;;;;;;5255743;28;20044;-80
2022/10/12 04:59:27;;;;;;;18.77;17.45;;;;;;;;;;5254150;28;20025;-80
2022/10/12 05:01:57;;;;;;;20.33;18.50;;;;;;;;;;5254904;28;20027;-80
2022/10/12 05:04:28;;;;;;;17.65;13.88;;;;;;;;;;5231466;28;20131;-81
2022/10/12 05:06:58;;;;;;;17.75;16.27;;;;;;;;;;5236233;28;20013;-79
2022/10/12 05:09:28;;;;;;;18.83;17.17;;;;;;;;;;5236945;28;20027;-81
2022/10/12 05:12:14;;;;;;;19.20;17.17;;;;;;;;;;5239274;28;20635;-79
2022/10/12 05:14:44;;;;;;;21.05;16.58;;;;;;;;;;5237692;28;20020;-80
2022/10/12 05:17:14;;;;;;;17.05;15.52;;;;;;;;;;5235016;28;20025;-81
2022/10/12 05:19:45;;;;;;;18.05;16.15;;;;;;;;;;5235231;28;20032;-81
2022/10/12 05:22:15;;;;;;;18.48;16.83;;;;;;;;;;5236135;28;20036;-80
2022/10/12 05:24:45;;;;;;;16.83;15.43;;;;;;;;;;5233783;28;20009;-78
2022/10/12 05:27:15;;;;;;;17.65;16.23;;;;;;;;;;5234224;28;20435;-80
2022/10/12 05:29:46;;;;;;;27.60;16.30;;;;;;;;;;5235470;28;20410;-79
2022/10/12 05:32:16;;;;;;;17.80;16.35;;;;;;;;;;5231871;28;20536;-81
2022/10/12 05:34:47;;;;;;;17.85;16.13;;;;;;;;;;5231490;28;20078;-81
2022/10/12 05:37:17;;;;;;;19.90;17.85;;;;;;;;;;5233743;28;20467;-80
2022/10/12 05:39:48;;;;;;;17.02;15.43;;;;;;;;;;5230829;28;20029;-80
2022/10/12 05:42:18;;;;;;;20.65;17.23;;;;;;;;;;5231849;28;20102;-82
2022/10/12 05:44:49;;;;;;;19.70;17.73;;;;;;;;;;5233983;28;20441;-85
2022/10/12 05:47:19;;;;;;;18.25;16.83;;;;;;;;;;5234999;28;20060;-85
2022/10/12 05:49:49;;;;;;;21.33;18.08;;;;;;;;;;5236072;28;20449;-82
2022/10/12 05:52:20;;;;;;;18.08;16.55;;;;;;;;;;5236409;28;20328;-85
2022/10/12 05:54:50;;;;;;;17.63;15.98;;;;;;;;;;5233803;28;20017;-79
2022/10/12 05:57:20;;;;;;;18.10;16.20;;;;;;;;;;5234458;28;20029;-79
2022/10/12 05:59:50;;;;;;;16.42;15.15;;;;;;;;;;5215233;28;20742;-81
2022/10/12 06:02:20;;;;;;;19.08;17.33;;;;;;;;;;5214571;28;20124;-79
2022/10/12 06:04:51;;;;;;;21.33;18.90;;;;;;;;;;5215394;28;20025;-82
2022/10/12 06:07:21;;;;;;;21.55;19.15;;;;;;;;;;5215074;28;20051;-83
2022/10/12 06:09:51;;;;;;;19.83;18.27;;;;;;;;;;5216235;28;20566;-85
2022/10/12 06:12:23;;;;;;;18.55;16.67;;;;;;;;;;5215809;28;20353;-84
2022/10/12 06:14:53;;;;;;;20.67;18.80;;;;;;;;;;5214949;28;20113;-85
2022/10/12 06:17:23;;;;;;;20.95;18.00;;;;;;;;;;5216269;28;20021;-84
2022/10/12 06:35:41;;;;;;;21.42;19.58;;;;;;;;;;5279087;23;20047;-84
2022/10/12 06:38:12;;;;;;;20.70;18.77;;;;;;;;;;5293253;28;20027;-82
2022/10/12 06:40:43;;;;;;;21.23;19.17;;;;;;;;;;5276048;28;20051;-84
2022/10/12 06:43:14;;;;;;;24.55;19.90;;;;;;;;;;5241375;28;20020;-86
2022/10/12 06:45:44;;;;;;;22.80;18.83;;;;;;;;;;5254753;28;20023;-86
2022/10/12 06:48:15;;;;;;;19.30;17.48;;;;;;;;;;5254962;28;20021;-86
2022/10/12 06:50:45;;;;;;;21.30;18.67;;;;;;;;;;5255703;28;20025;-84
2022/10/12 06:53:16;;;;;;;21.98;19.77;;;;;;;;;;5236958;28;20037;-84
2022/10/12 06:55:46;;;;;;;22.05;20.05;;;;;;;;;;5255973;28;20035;-85
2022/10/12 06:58:16;;;;;;;19.50;17.90;;;;;;;;;;5258744;28;20024;-85
2022/10/12 07:00:46;;;;;;;20.17;18.10;;;;;;;;;;5244066;28;20012;-84
2022/10/12 07:03:17;;;;;;;20.08;18.45;;;;;;;;;;5261062;28;20019;-86
2022/10/12 07:05:47;;;;;;;24.75;18.77;;;;;;;;;;5242041;28;20542;-84
2022/10/12 07:08:17;;;;;;;27.45;20.38;;;;;;;;;;5241668;28;20020;-86
2022/10/12 07:10:47;;;;;;;28.00;22.55;;;;;;;;;;5258211;28;20025;-85
2022/10/12 07:13:18;;;;;;;18.45;16.77;;;;;;;;;;5239577;28;20020;-84
2022/10/12 07:15:49;;;;;;;26.75;19.23;;;;;;;;;;5239887;28;20050;-86
2022/10/12 07:18:19;;;;;;;23.15;19.63;;;;;;;;;;5257440;28;20020;-85
2022/10/12 07:20:49;;;;;;;27.25;20.05;;;;;;;;;;5258279;28;20467;-84
2022/10/12 07:23:20;;;;;;;21.30;19.27;;;;;;;;;;5239767;28;20181;-85
2022/10/12 07:25:51;;;;;;;20.23;18.20;;;;;;;;;;5257802;28;20016;-85
2022/10/12 07:28:21;;;;;;;21.75;19.45;;;;;;;;;;5258544;28;20263;-86
2022/10/12 07:30:51;;;;;;;27.55;19.75;;;;;;;;;;5258366;28;20086;-85
2022/10/12 07:33:22;;;;;;;22.00;19.50;;;;;;;;;;5258321;28;20058;-83
2022/10/12 07:35:53;;;;;;;22.27;20.00;;;;;;;;;;5241463;28;20036;-84
2022/10/12 07:38:23;;;;;;;23.10;20.65;;;;;;;;;;5241862;28;20026;-84
2022/10/12 07:40:53;;;;;;;22.05;19.10;;;;;;;;;;5259465;28;20023;-85
2022/10/12 07:43:23;;;;;;;21.08;17.95;;;;;;;;;;5244604;28;20123;-85
2022/10/12 07:45:54;;;;;;;19.90;17.90;;;;;;;;;;5263081;28;20025;-86
2022/10/12 07:48:25;;;;;;;19.77;17.75;;;;;;;;;;5263937;28;20020;-86
2022/10/12 07:51:01;;;;;;;20.27;18.35;;;;;;;;;;5245142;28;20092;-84
2022/10/12 07:53:35;;;;;;;22.38;19.55;;;;;;;;;;5247351;28;20517;-83
2022/10/12 07:56:06;;;;;;;16.85;15.65;;;;;;;;;;5257089;28;20024;-81
2022/10/12 07:58:36;;;;;;;18.75;16.67;;;;;;;;;;5264181;28;20024;-86
2022/10/12 08:01:08;;;;;;;23.00;18.33;;;;;;;;;;5245303;28;20050;-86
2022/10/12 08:03:38;;;;;;;19.95;18.15;;;;;;;;;;5262700;28;20020;-86
2022/10/12 08:06:10;;;;;;;24.20;21.55;;;;;;;;;;5263099;28;20012;-87
2022/10/12 08:08:40;;;;;;;17.17;15.80;;;;;;;;;;5243780;28;20017;-85
2022/10/12 08:11:11;;;;;;;17.90;16.20;;;;;;;;;;5242919;28;20074;-85
2022/10/12 08:13:41;;;;;;;20.40;18.20;;;;;;;;;;5260899;28;20458;-86
2022/10/12 08:16:13;;;;;;;17.48;15.77;;;;;;;;;;5242729;28;20133;-86
2022/10/12 08:18:43;;;;;;;14.63;13.32;;;;;;;;;;5261322;28;20028;-86
2022/10/12 08:21:15;;;;;;;26.27;14.65;;;;;;;;;;5260738;28;20023;-86
2022/10/12 08:23:46;;;;;;;28.83;13.48;;;;;;;;;;5260492;28;20536;-86
2022/10/12 08:26:16;;;;;;;16.13;12.27;;;;;;;;;;5243599;28;20036;-85
2022/10/12 08:28:46;;;;;;;17.65;14.43;;;;;;;;;;5261498;28;20069;-85
2022/10/12 08:31:16;;;;;;;16.20;14.52;;;;;;;;;;5261334;28;20025;-84
2022/10/12 08:33:47;;;;;;;16.30;13.70;;;;;;;;;;5261381;28;20092;-84
2022/10/12 08:36:17;;;;;;;17.85;12.45;;;;;;;;;;5261761;28;20028;-85
2022/10/12 08:38:54;;;;;;;18.52;14.40;;;;;;;;;;5260359;28;20024;-83
2022/10/12 08:41:44;;;;;;;14.45;13.18;;;;;;;;;;5259472;28;20021;-84
2022/10/12 08:44:14;;;;;;;12.27;11.07;;;;;;;;;;5240619;28;20019;-86
2022/10/12 08:46:45;;;;;;;15.73;12.10;;;;;;;;;;5262382;22;20064;-64
2022/10/12 08:49:20;;;;;;;20.55;12.88;;;;;;;;;;5241181;28;20025;-64
2022/10/12 08:51:51;;;;;;;14.70;12.15;;;;;;;;;;5208222;28;20049;-64
2022/10/12 08:54:22;;;;;;;14.07;12.63;;;;;;;;;;5208347;28;20096;-64
2022/10/12 08:56:53;;;;;;;17.58;13.95;;;;;;;;;;5208754;28;20381;-65
2022/10/12 08:59:25;;;;;;;14.15;11.57;;;;;;;;;;5208146;28;20067;-65
2022/10/12 09:01:58;;;;;;;15.57;12.38;;;;;;;;;;5208102;28;20369;-66
2022/10/12 09:04:44;;;;;;;18.83;14.70;;;;;;;;;;5207814;28;20017;-65
2022/10/12 09:07:14;;;;;;;20.90;14.35;;;;;;;;;;5208271;28;20027;-66
2022/10/12 09:09:44;;;;;;;16.83;14.73;;;;;;;;;;5208047;28;20111;-67
2022/10/12 09:12:15;;;;;;;21.20;15.38;;;;;;;;;;5208063;28;20449;-67
2022/10/12 09:14:46;;;;;;;19.75;15.98;;;;;;;;;;5207585;28;20123;-66
2022/10/12 09:17:22;;;;;;;18.60;16.48;;;;;;;;;;5226088;28;20124;-65
2022/10/12 09:20:00;;;;;;;19.63;17.30;;;;;;;;;;5207838;28;20029;-65
2022/10/12 09:22:30;;;;;;;19.75;15.15;;;;;;;;;;5213259;28;20375;-68
2022/10/12 09:25:01;;;;;;;15.32;13.90;;;;;;;;;;5227700;28;20024;-66
2022/10/12 09:27:31;;;;;;;13.65;12.45;;;;;;;;;;5228431;28;20024;-68
2022/10/12 09:30:02;;;;;;;15.75;11.73;;;;;;;;;;5228251;28;20527;-68
2022/10/12 09:32:36;;;;;;;16.98;12.77;;;;;;;;;;5246499;28;20012;-67
2022/10/12 09:35:09;;;;;;;13.27;11.77;;;;;;;;;;5228080;28;20361;-67
2022/10/12 09:37:40;;;;;;;14.57;12.30;;;;;;;;;;5228429;28;20020;-68
2022/10/12 09:40:30;;;;;;;21.58;14.07;;;;;;;;;;5228401;28;20016;-68
2022/10/12 09:43:01;;;;;;;17.63;16.00;;;;;;;;;;5228040;28;20044;-68
2022/10/12 09:45:32;;;;;;;23.40;20.60;;;;;;;;;;5227891;28;20040;-69
2022/10/12 09:48:23;;;;;;;25.45;19.45;;;;;;;;;;5227969;28;20040;-67
2022/10/12 09:50:57;;;;;;;20.33;17.70;;;;;;;;;;5228040;28;20074;-68
2022/10/12 09:53:33;;;;;;;16.00;13.48;;;;;;;;;;5227702;28;20083;-69
2022/10/12 09:56:09;;;;;;;19.25;12.98;;;;;;;;;;5228155;28;20384;-68
2022/10/12 09:59:03;;;;;;;19.75;18.00;;;;;;;;;;5227879;28;20028;-68
2022/10/12 10:01:34;;;;;;;12.32;10.85;;;;;;;;;;5219560;28;20031;-67
2022/10/12 10:04:07;;;;;;;14.60;13.25;;;;;;;;;;5226895;28;20021;-68
2022/10/12 10:06:39;;;;;;;18.60;14.35;;;;;;;;;;5228133;28;20147;-68
2022/10/12 10:09:29;;;;;;;16.33;14.65;;;;;;;;;;5227733;28;20025;-68
2022/10/12 10:12:19;;;;;;;16.85;14.57;;;;;;;;;;5227552;28;20032;-67
2022/10/12 10:14:51;;;;;;;14.13;12.77;;;;;;;;;;5227425;28;20070;-68
2022/10/12 10:17:25;;;;;;;15.70;12.38;;;;;;;;;;5228712;28;20025;-68
2022/10/12 10:19:57;;;;;;;11.63;10.63;;;;;;;;;;5227679;28;20020;-68
2022/10/12 10:22:28;;;;;;;9.80;8.60;;;;;;;;;;5227660;28;20020;-68
2022/10/12 10:24:59;;;;;;;11.77;9.98;;;;;;;;;;5243841;28;20082;-69
2022/10/12 10:27:31;;;;;;;13.57;11.85;;;;;;;;;;5244227;28;20027;-68
2022/10/12 10:30:07;;;;;;;11.90;10.85;;;;;;;;;;5227289;28;20029;-67
2022/10/12 10:32:38;;;;;;;15.48;10.52;;;;;;;;;;5227274;28;20173;-68
2022/10/12 10:35:11;;;;;;;14.70;8.93;;;;;;;;;;5227156;28;20060;-69
2022/10/12 10:37:50;;;;;;;9.65;7.55;;;;;;;;;;5243941;28;20024;-70
2022/10/12 10:40:23;;;;;;;13.38;10.45;;;;;;;;;;5227444;28;20021;-70
2022/10/12 10:42:55;;;;;;;8.57;7.85;;;;;;;;;;5227289;28;20104;-70
2022/10/12 10:45:30;;;;;;;11.00;8.60;;;;;;;;;;5226611;28;20086;-70
2022/10/12 10:48:14;;;;;;;10.18;7.45;;;;;;;;;;5226458;28;20029;-70
2022/10/12 10:50:50;;;;;;;10.60;9.52;;;;;;;;;;5219939;28;20060;-70
2022/10/12 10:53:25;;;;;;;11.07;6.95;;;;;;;;;;5217853;28;20017;-69
2022/10/12 10:56:07;;;;;;;10.02;8.23;;;;;;;;;;5210050;28;20829;-69
2022/10/12 10:58:45;;;;;;;7.22;6.63;;;;;;;;;;5220861;28;20017;-69
2022/10/12 11:01:22;;;;;;;8.20;6.95;;;;;;;;;;5227103;28;20024;-69
2022/10/12 11:03:55;;;;;;;14.27;7.55;;;;;;;;;;5226677;28;20365;-70
2022/10/12 11:06:32;;;;;;;7.78;6.18;;;;;;;;;;5226868;28;20138;-68
2022/10/12 11:09:24;;;;;;;7.22;6.53;;;;;;;;;;5218241;28;20044;-67
2022/10/12 11:11:57;;;;;;;4.78;4.40;;;;;;;;;;5205969;28;20491;-70
2022/10/12 11:14:32;;;;;;;10.48;6.47;;;;;;;;;;5206037;28;20470;-69
2022/10/12 11:17:10;;;;;;;6.82;5.28;;;;;;;;;;5210106;28;20083;-68
2022/10/12 11:19:43;;;;;;;6.45;5.15;;;;;;;;;;5225616;28;20028;-68
2022/10/12 11:22:24;;;;;;;14.02;4.32;;;;;;;;;;5230944;28;20013;-68
2022/10/12 11:25:07;;;;;;;6.57;5.00;;;;;;;;;;5218045;28;20033;-70
2022/10/12 11:27:38;;;;;;;5.97;5.20;;;;;;;;;;5228009;28;20009;-67
2022/10/12 11:30:14;;;;;;;9.77;4.72;;;;;;;;;;5210076;28;20025;-68
2022/10/12 11:32:53;;;;;;;4.80;4.50;;;;;;;;;;5209752;28;20031;-67
2022/10/12 11:35:34;;;;;;;7.15;4.70;;;;;;;;;;5209645;28;20044;-69
2022/10/12 11:38:06;;;;;;;7.70;4.15;;;;;;;;;;5209040;28;20021;-68
2022/10/12 11:40:57;;;;;;;9.10;4.97;;;;;;;;;;5206657;28;20461;-68
2022/10/12 11:43:29;;;;;;;4.95;3.28;;;;;;;;;;5208636;28;20167;-68
2022/10/12 11:46:02;;;;;;;9.05;3.35;;;;;;;;;;5209232;28;20101;-68
2022/10/12 11:48:39;;;;;;;4.97;4.38;;;;;;;;;;5209308;28;20119;-69
2022/10/12 11:51:10;;;;;;;6.47;5.43;;;;;;;;;;5210080;28;20028;-69
2022/10/12 11:54:02;;;;;;;3.70;3.35;;;;;;;;;;5209253;28;20115;-69
2022/10/12 11:56:39;;;;;;;5.20;4.68;;;;;;;;;;5209445;28;20115;-68
2022/10/12 11:59:15;;;;;;;5.38;4.97;;;;;;;;;;5214605;28;20032;-68
2022/10/12 12:01:48;;;;;;;5.50;3.72;;;;;;;;;;5229928;28;20016;-68
2022/10/12 12:04:32;;;;;;;4.78;4.32;;;;;;;;;;5229557;28;20071;-68
2022/10/12 12:07:05;;;;;;;5.22;4.50;;;;;;;;;;5230278;28;20028;-68
2022/10/12 12:09:38;;;;;;;4.50;4.10;;;;;;;;;;5228928;28;20026;-69
2022/10/12 12:12:08;;;;;;;6.20;4.38;;;;;;;;;;5229251;28;20670;-69
2022/10/12 12:15:08;;;;;;;6.88;5.57;;;;;;;;;;5229860;28;20286;-69
2022/10/12 12:17:38;;;;;;;;;;;;;;;;;;5209217;28;20029;-68
2022/10/12 12:20:38;;;;;;;6.88;4.45;;;;;;;;;;5229988;28;20003;-69
2022/10/12 12:23:08;;;;;;;;;;;;;;;;;;5225885;28;20389;-69
2022/10/12 12:25:38;;;;;;;10.43;6.45;;;;;;;;;;5229495;28;19911;-68
2022/10/12 12:28:23;;;;;;;8.23;4.40;;;;;;;;;;5228979;28;20590;-68
2022/10/12 12:31:01;;;;;;;5.25;4.35;;;;;;;;;;5229651;28;20388;-69
2022/10/12 12:33:34;;;;;;;5.43;3.85;;;;;;;;;;5227419;28;20387;-69
2022/10/12 12:36:06;;;;;;;5.07;4.53;;;;;;;;;;5229947;28;20080;-69
2022/10/12 12:38:49;;;;;;;5.93;5.22;;;;;;;;;;5229523;28;20025;-67
2022/10/12 12:41:21;;;;;;;6.00;4.18;;;;;;;;;;5247305;28;20071;-68
2022/10/12 12:44:01;;;;;;;4.05;3.75;;;;;;;;;;5247308;28;20395;-67
2022/10/12 12:47:04;;;;;;;3.53;3.28;;;;;;;;;;5229258;28;20012;-68
2022/10/12 12:49:40;;;;;;;5.82;4.03;;;;;;;;;;5175064;28;20033;-68
2022/10/12 12:52:17;;;;;;;10.35;5.20;;;;;;;;;;5229022;28;20047;-69
2022/10/12 12:55:06;;;;;;;9.32;3.67;;;;;;;;;;5228709;28;20013;-68
2022/10/12 12:57:55;;;;;;;9.93;4.57;;;;;;;;;;5229119;28;20024;-69
2022/10/12 13:00:35;;;;;;;5.88;3.83;;;;;;;;;;5229038;28;20039;-69
2022/10/12 13:03:08;;;;;;;7.38;5.07;;;;;;;;;;5228746;28;20388;-69
2022/10/12 13:05:57;;;;;;;5.90;4.90;;;;;;;;;;5228853;28;20153;-69
2022/10/12 13:08:30;;;;;;;7.43;4.13;;;;;;;;;;5244885;28;20016;-68
2022/10/12 13:11:19;;;;;;;6.03;3.42;;;;;;;;;;5228584;28;20131;-68
2022/10/12 13:14:22;;;;;;;8.25;4.53;;;;;;;;;;5228315;28;20518;-69
2022/10/12 13:17:04;;;;;;;6.90;4.95;;;;;;;;;;5174588;28;20060;-69
2022/10/12 13:19:35;;;;;;;6.20;4.53;;;;;;;;;;5227970;28;20028;-68
2022/10/12 13:22:12;;;;;;;4.60;4.30;;;;;;;;;;5228666;28;20024;-68
2022/10/12 13:24:49;;;;;;;4.63;4.22;;;;;;;;;;5227839;28;20086;-69
2022/10/12 13:27:22;;;;;;;6.30;4.72;;;;;;;;;;5221592;28;20021;-68
2022/10/12 13:29:55;;;;;;;5.93;4.50;;;;;;;;;;5227875;28;20427;-68
2022/10/12 13:32:25;;;;;;;18.30;6.72;;;;;;;;;;5244593;28;20500;-68
2022/10/12 13:35:00;;;;;;;6.57;5.75;;;;;;;;;;5244435;28;20024;-69
2022/10/12 13:37:32;;;;;;;7.47;4.75;;;;;;;;;;5244628;28;20027;-69
2022/10/12 13:40:02;;;;;;;7.28;6.13;;;;;;;;;;5226939;28;20055;-69
2022/10/12 13:42:34;;;;;;;6.63;6.03;;;;;;;;;;5242957;28;20429;-69
2022/10/12 13:45:06;;;;;;;11.55;4.55;;;;;;;;;;5227612;28;20551;-69
2022/10/12 13:47:41;;;;;;;5.10;4.70;;;;;;;;;;5244120;28;20075;-69
2022/10/12 13:50:18;;;;;;;9.68;5.68;;;;;;;;;;5244451;28;20052;-69
2022/10/12 13:52:52;;;;;;;10.35;5.68;;;;;;;;;;5244370;28;20027;-69
2022/10/12 13:55:24;;;;;;;5.45;4.90;;;;;;;;;;5243961;28;20059;-69
2022/10/12 13:57:54;;;;;;;6.32;5.25;;;;;;;;;;5223943;28;20063;-69
2022/10/12 14:00:25;;;;;;;6.13;4.85;;;;;;;;;;5207284;28;20061;-69
2022/10/12 14:03:03;;;;;;;5.13;4.78;;;;;;;;;;5207639;28;20013;-69
2022/10/12 14:05:40;;;;;;;7.35;5.95;;;;;;;;;;5206344;28;20025;-69
2022/10/12 14:08:15;;;;;;;5.93;5.35;;;;;;;;;;5205317;28;20436;-69
2022/10/12 14:10:48;;;;;;;7.38;6.68;;;;;;;;;;5207193;28;20048;-68
2022/10/12 14:13:25;;;;;;;5.93;5.15;;;;;;;;;;5207555;28;20052;-69
2022/10/12 14:15:56;;;;;;;7.65;6.80;;;;;;;;;;5225637;28;20143;-68
2022/10/12 14:18:40;;;;;;;6.00;5.57;;;;;;;;;;5228100;28;20484;-69
2022/10/12 14:21:22;;;;;;;9.10;5.25;;;;;;;;;;5244859;28;20021;-69
2022/10/12 14:24:12;;;;;;;6.63;5.93;;;;;;;;;;5244578;28;20028;-69
2022/10/12 14:26:45;;;;;;;5.38;4.88;;;;;;;;;;5227600;28;20043;-69
2022/10/12 14:29:25;;;;;;;5.40;4.97;;;;;;;;;;5228309;28;20031;-69
2022/10/12 14:31:57;;;;;;;9.85;5.35;;;;;;;;;;5244882;28;20024;-69
2022/10/12 14:34:27;;;;;;;4.95;4.10;;;;;;;;;;5244254;28;20029;-69
2022/10/12 14:37:04;;;;;;;5.85;5.45;;;;;;;;;;5246066;28;20384;-69
2022/10/12 14:39:34;;;;;;;7.45;5.15;;;;;;;;;;5244571;28;20052;-69
2022/10/12 14:42:18;;;;;;;5.90;5.22;;;;;;;;;;5244613;28;20055;-69
2022/10/12 14:44:49;;;;;;;5.38;5.07;;;;;;;;;;5227346;28;20017;-69
2022/10/12 14:47:19;;;;;;;6.50;4.90;;;;;;;;;;5238052;22;20051;-65
2022/10/12 14:49:50;;;;;;;10.38;6.13;;;;;;;;;;5223551;28;20616;-65
2022/10/12 14:52:22;;;;;;;5.85;5.32;;;;;;;;;;5227543;28;20024;-65
2022/10/12 14:54:54;;;;;;;6.43;4.75;;;;;;;;;;5227835;28;20078;-64
2022/10/12 14:57:26;;;;;;;7.88;6.00;;;;;;;;;;5227918;28;20032;-65
2022/10/12 14:59:57;;;;;;;4.55;4.15;;;;;;;;;;5228900;28;20028;-66
2022/10/12 15:02:29;;;;;;;6.85;4.55;;;;;;;;;;5248676;28;20541;-65
2022/10/12 15:05:00;;;;;;;4.97;4.53;;;;;;;;;;5243440;28;20021;-65
2022/10/12 15:07:32;;;;;;;10.20;6.00;;;;;;;;;;5227596;28;20529;-66
2022/10/12 15:10:02;;;;;;;7.88;6.18;;;;;;;;;;5227529;28;20025;-65
2022/10/12 15:12:33;;;;;;;5.45;4.95;;;;;;;;;;5227943;28;20450;-66
2022/10/12 15:15:18;;;;;;;5.47;4.97;;;;;;;;;;5227623;28;20078;-64
2022/10/12 15:17:49;;;;;;;6.03;5.28;;;;;;;;;;5227795;28;20028;-64
2022/10/12 15:20:19;;;;;;;10.02;5.78;;;;;;;;;;5227387;28;20220;-65